Time;durP1;ratioP1;P1;durP2;ratioP2;P2;SDS_P1;SDS_P2;PMS_P1;PMS_P2;Temp;Humidity;BMP_temperature;BMP_pressure;BME280_temperature;BME280_humidity;BME280_pressure;Samples;Min_cycle;Max_cycle;Signal;HPM_P1;HPM_P2
2022/01/08 00:00:57;;;;;;;7.75;4.15;;;8.80;69.60;;;;;;5013060;28;20022;-69
2022/01/08 00:03:22;;;;;;;7.63;3.92;;;8.70;69.60;;;;;;5012970;28;20026;-68
2022/01/08 00:05:48;;;;;;;9.38;4.13;;;8.70;69.90;;;;;;5013021;28;20041;-68
2022/01/08 00:08:15;;;;;;;11.15;4.07;;;8.70;69.90;;;;;;5012921;28;20057;-68
2022/01/08 00:10:41;;;;;;;9.32;4.22;;;8.70;69.70;;;;;;5013115;28;20120;-69
2022/01/08 00:13:08;;;;;;;9.60;4.18;;;8.70;69.60;;;;;;5013057;28;20026;-68
2022/01/08 00:15:34;;;;;;;9.55;3.80;;;8.70;69.80;;;;;;5012977;28;20467;-69
2022/01/08 00:18:00;;;;;;;9.13;3.95;;;8.70;69.60;;;;;;5012760;28;20033;-69
2022/01/08 00:20:27;;;;;;;9.32;4.05;;;8.70;69.70;;;;;;5012913;28;20030;-69
2022/01/08 00:22:54;;;;;;;8.70;4.03;;;8.60;69.40;;;;;;5012800;28;20116;-68
2022/01/08 00:25:20;;;;;;;8.48;4.15;;;8.60;69.60;;;;;;5012702;28;20486;-69
2022/01/08 00:27:46;;;;;;;9.60;4.28;;;8.50;69.40;;;;;;5012854;28;20050;-67
2022/01/08 00:30:13;;;;;;;12.50;4.38;;;8.40;69.70;;;;;;5012715;28;20445;-68
2022/01/08 00:32:39;;;;;;;7.95;4.07;;;8.40;69.80;;;;;;5012721;28;20018;-68
2022/01/08 00:35:07;;;;;;;5.88;3.53;;;8.30;70.00;;;;;;5012611;28;20037;-68
2022/01/08 00:37:34;;;;;;;13.52;7.28;;;8.30;70.00;;;;;;5012529;28;20094;-68
2022/01/08 00:40:00;;;;;;;21.60;13.20;;;8.30;70.30;;;;;;5012845;28;20113;-68
2022/01/08 00:42:26;;;;;;;13.52;5.35;;;8.30;70.10;;;;;;5012764;28;20388;-68
2022/01/08 00:44:52;;;;;;;9.75;4.68;;;8.20;69.90;;;;;;5016404;28;20040;-67
2022/01/08 00:47:18;;;;;;;7.80;4.03;;;8.20;70.20;;;;;;5016708;28;20105;-68
2022/01/08 00:49:43;;;;;;;7.18;3.60;;;8.10;70.80;;;;;;5016622;28;20022;-68
2022/01/08 00:52:09;;;;;;;10.13;4.43;;;8.10;70.20;;;;;;5016776;28;20116;-68
2022/01/08 00:54:36;;;;;;;9.60;3.55;;;8.10;70.30;;;;;;5016441;28;20065;-69
2022/01/08 00:57:03;;;;;;;11.70;3.88;;;8.10;70.40;;;;;;5016724;28;20026;-68
2022/01/08 00:59:29;;;;;;;10.38;3.88;;;8.20;70.30;;;;;;5015089;28;20037;-68
2022/01/08 01:01:55;;;;;;;8.90;3.75;;;8.10;70.10;;;;;;5016449;28;20022;-68
2022/01/08 01:04:21;;;;;;;9.25;3.70;;;8.10;70.30;;;;;;5016307;28;20088;-68
2022/01/08 01:06:46;;;;;;;7.93;3.80;;;8.20;70.50;;;;;;5031529;28;20026;-68
2022/01/08 01:09:12;;;;;;;8.52;4.10;;;8.10;70.10;;;;;;5016464;28;20064;-69
2022/01/08 01:11:38;;;;;;;8.15;4.25;;;8.00;70.10;;;;;;5015240;28;20498;-71
2022/01/08 01:14:04;;;;;;;8.05;3.92;;;8.00;70.30;;;;;;5016104;28;20491;-69
2022/01/08 01:16:29;;;;;;;9.15;4.00;;;8.00;70.30;;;;;;5016034;28;20018;-69
2022/01/08 01:18:57;;;;;;;6.53;3.13;;;7.90;70.40;;;;;;5015972;28;20069;-69
2022/01/08 01:21:22;;;;;;;8.30;3.60;;;7.90;71.10;;;;;;5016130;28;20626;-68
2022/01/08 01:23:49;;;;;;;9.32;3.80;;;7.80;70.60;;;;;;5017493;28;20026;-69
2022/01/08 01:26:20;;;;;;;8.38;4.00;;;7.70;70.30;;;;;;5016838;28;20034;-69
2022/01/08 01:47:15;;;;;;;9.30;3.60;;;7.60;71.10;;;;;;5015857;28;20060;-68
2022/01/08 01:49:43;;;;;;;7.45;3.75;;;7.60;70.90;;;;;;5015536;28;20093;-68
2022/01/08 01:52:11;;;;;;;9.82;3.90;;;7.60;70.80;;;;;;5015579;28;20471;-67
2022/01/08 01:54:38;;;;;;;7.20;3.63;;;7.60;70.60;;;;;;5015179;28;20050;-68
2022/01/08 01:57:06;;;;;;;8.63;3.90;;;7.60;71.00;;;;;;5015361;28;20105;-68
2022/01/08 01:59:33;;;;;;;6.68;3.40;;;7.70;71.10;;;;;;5015433;28;20114;-66
2022/01/08 02:01:59;;;;;;;6.78;3.50;;;7.70;71.10;;;;;;5015520;28;20022;-68
2022/01/08 02:04:26;;;;;;;7.35;3.80;;;7.70;71.00;;;;;;5015326;28;20121;-67
2022/01/08 02:06:51;;;;;;;7.00;3.30;;;7.70;70.90;;;;;;5015176;28;20097;-68
2022/01/08 02:09:17;;;;;;;11.60;3.88;;;7.60;71.00;;;;;;5015178;28;20117;-67
2022/01/08 02:11:57;;;;;;;10.30;3.60;;;7.50;70.80;;;;;;5015203;28;20026;-68
2022/01/08 02:14:24;;;;;;;8.73;3.38;;;7.50;71.70;;;;;;5015302;28;20033;-69
2022/01/08 02:16:50;;;;;;;8.32;3.67;;;7.40;71.00;;;;;;5013989;28;20363;-69
2022/01/08 02:19:16;;;;;;;7.45;3.40;;;7.40;71.00;;;;;;5015120;28;20029;-68
2022/01/08 02:21:51;;;;;;;6.55;3.22;;;7.40;71.20;;;;;;5030050;28;20072;-71
2022/01/08 02:24:17;;;;;;;7.50;3.65;;;7.40;71.50;;;;;;5013521;28;20442;-68
2022/01/08 02:26:43;;;;;;;7.25;3.33;;;7.40;71.10;;;;;;5015062;28;20036;-68
2022/01/08 02:29:13;;;;;;;7.38;3.42;;;7.40;70.90;;;;;;5014687;28;20449;-68
2022/01/08 02:31:39;;;;;;;8.23;3.30;;;7.40;70.90;;;;;;5014840;28;20550;-68
2022/01/08 02:34:06;;;;;;;9.50;3.55;;;7.30;70.90;;;;;;5014743;28;20068;-68
2022/01/08 02:36:33;;;;;;;6.20;3.30;;;7.30;71.00;;;;;;5014589;28;20414;-68
2022/01/08 02:38:59;;;;;;;6.35;3.10;;;7.40;71.00;;;;;;5014425;28;20056;-67
2022/01/08 02:41:27;;;;;;;6.82;3.30;;;7.40;71.10;;;;;;5014684;28;20344;-68
2022/01/08 02:43:53;;;;;;;7.47;3.78;;;7.30;71.00;;;;;;5014493;28;20038;-68
2022/01/08 02:46:21;;;;;;;9.57;3.80;;;7.40;71.10;;;;;;5013085;28;20029;-67
2022/01/08 02:48:47;;;;;;;6.57;3.22;;;7.40;70.90;;;;;;5014276;28;20029;-69
2022/01/08 02:51:13;;;;;;;7.38;3.67;;;7.30;70.90;;;;;;5014672;28;20022;-67
2022/01/08 02:53:39;;;;;;;7.60;3.22;;;7.30;71.10;;;;;;5014695;28;20078;-69
2022/01/08 02:56:05;;;;;;;7.35;3.50;;;7.30;71.50;;;;;;5014390;28;20033;-68
2022/01/08 02:58:31;;;;;;;7.05;3.35;;;7.40;71.00;;;;;;5014078;28;20490;-68
2022/01/08 03:00:57;;;;;;;5.30;3.00;;;7.40;71.10;;;;;;5014298;28;20058;-67
2022/01/08 03:03:24;;;;;;;7.78;3.65;;;7.40;71.10;;;;;;5014160;28;20412;-68
2022/01/08 03:05:50;;;;;;;4.90;3.00;;;7.40;71.50;;;;;;5013548;28;20407;-68
2022/01/08 03:08:16;;;;;;;7.53;3.63;;;7.40;70.60;;;;;;5013960;28;20391;-69
2022/01/08 03:10:42;;;;;;;8.45;3.35;;;7.30;71.20;;;;;;5014010;28;20025;-69
2022/01/08 03:13:08;;;;;;;9.73;3.25;;;7.30;71.20;;;;;;5013973;28;20037;-71
2022/01/08 03:15:36;;;;;;;8.20;3.40;;;7.20;71.20;;;;;;5013888;28;20057;-68
2022/01/08 03:18:06;;;;;;;6.10;3.40;;;7.20;71.50;;;;;;5013804;28;20029;-67
2022/01/08 03:20:35;;;;;;;7.68;3.20;;;7.20;71.50;;;;;;5013997;28;20395;-69
2022/01/08 03:23:03;;;;;;;6.55;3.50;;;7.20;71.40;;;;;;5013774;28;20026;-67
2022/01/08 03:25:30;;;;;;;7.03;3.60;;;7.10;70.90;;;;;;5013760;28;20104;-67
2022/01/08 03:27:56;;;;;;;7.47;3.50;;;7.10;71.30;;;;;;5013639;28;20053;-67
2022/01/08 03:30:24;;;;;;;6.25;3.65;;;7.10;71.50;;;;;;5013589;28;20167;-69
2022/01/08 03:32:51;;;;;;;8.35;3.13;;;7.10;71.20;;;;;;5013468;28;20380;-71
2022/01/08 03:35:17;;;;;;;6.13;3.22;;;7.10;71.50;;;;;;5013517;28;20467;-69
2022/01/08 03:37:43;;;;;;;5.78;3.30;;;7.00;71.50;;;;;;5013475;28;20071;-67
2022/01/08 03:40:09;;;;;;;8.93;3.75;;;7.00;72.00;;;;;;5013230;28;20447;-68
2022/01/08 03:42:35;;;;;;;8.52;3.67;;;7.10;71.80;;;;;;5013204;28;20026;-68
2022/01/08 03:45:02;;;;;;;7.18;3.75;;;7.10;71.60;;;;;;5013282;28;20109;-68
2022/01/08 03:49:55;;;;;;;10.98;4.32;;;7.30;71.40;;;;;;5013609;28;20033;-67
2022/01/08 03:52:21;;;;;;;10.25;3.75;;;7.30;71.30;;;;;;5013427;28;20030;-67
2022/01/08 03:54:47;;;;;;;8.93;4.00;;;7.20;71.20;;;;;;5013053;28;20065;-67
2022/01/08 03:57:13;;;;;;;9.10;3.60;;;7.20;71.40;;;;;;5013245;28;20368;-67
2022/01/08 03:59:38;;;;;;;9.63;3.63;;;7.10;71.50;;;;;;5013077;28;20030;-68
2022/01/08 04:02:04;;;;;;;7.00;3.63;;;7.10;71.80;;;;;;5013192;28;20030;-72
2022/01/08 04:04:30;;;;;;;7.50;3.33;;;7.10;71.80;;;;;;5013128;28;20196;-68
2022/01/08 04:06:56;;;;;;;7.38;4.07;;;7.10;71.70;;;;;;5013006;28;20056;-68
2022/01/08 04:09:22;;;;;;;8.02;4.00;;;7.10;72.10;;;;;;5013003;28;20029;-69
2022/01/08 04:11:48;;;;;;;7.43;3.88;;;7.10;72.00;;;;;;5013024;28;20030;-67
2022/01/08 04:14:15;;;;;;;8.57;3.85;;;7.10;72.10;;;;;;5012917;28;20030;-68
2022/01/08 04:16:45;;;;;;;7.80;3.55;;;7.10;72.40;;;;;;5027807;28;20089;-68
2022/01/08 04:19:11;;;;;;;7.65;3.92;;;7.10;72.40;;;;;;5011857;28;20077;-68
2022/01/08 04:24:08;;;;;;;7.75;3.80;;;7.10;72.50;;;;;;5012769;28;20037;-72
2022/01/08 04:26:34;;;;;;;7.43;4.00;;;7.10;72.30;;;;;;5012675;28;20057;-69
2022/01/08 04:29:01;;;;;;;9.60;4.05;;;7.10;72.50;;;;;;5012667;28;20029;-68
2022/01/08 04:31:27;;;;;;;9.55;3.72;;;7.00;72.00;;;;;;5012718;28;20403;-67
2022/01/08 04:33:53;;;;;;;7.10;4.18;;;7.00;72.60;;;;;;5012714;28;20026;-68
2022/01/08 04:36:19;;;;;;;9.80;4.68;;;7.00;72.80;;;;;;5012671;28;20033;-68
2022/01/08 04:38:45;;;;;;;8.40;4.40;;;7.00;72.90;;;;;;5012551;28;20037;-68
2022/01/08 04:41:11;;;;;;;9.63;4.10;;;7.00;73.70;;;;;;5012544;28;20383;-69
2022/01/08 04:43:42;;;;;;;8.35;4.32;;;7.00;73.00;;;;;;5011264;28;20475;-68
2022/01/08 04:46:08;;;;;;;7.60;3.88;;;7.00;73.30;;;;;;5012418;28;20038;-69
2022/01/08 04:48:33;;;;;;;8.85;4.50;;;7.00;73.80;;;;;;5012410;28;20025;-67
2022/01/08 04:50:59;;;;;;;7.72;4.32;;;7.00;73.70;;;;;;5012463;28;20041;-68
2022/01/08 04:53:25;;;;;;;7.30;4.00;;;7.00;73.90;;;;;;5012300;28;20050;-70
2022/01/08 04:55:51;;;;;;;9.57;4.78;;;6.90;73.90;;;;;;5012697;28;20026;-69
2022/01/08 04:58:16;;;;;;;10.90;4.70;;;6.90;74.00;;;;;;5012628;28;20072;-68
2022/01/08 05:00:42;;;;;;;8.68;4.45;;;6.90;74.30;;;;;;5012623;28;20544;-68
2022/01/08 05:03:08;;;;;;;11.05;4.82;;;6.90;74.30;;;;;;5012584;28;20491;-69
2022/01/08 05:05:34;;;;;;;8.30;4.40;;;6.90;74.60;;;;;;5012589;28;20061;-68
2022/01/08 05:07:59;;;;;;;10.25;5.00;;;6.80;74.30;;;;;;5012227;28;20034;-68
2022/01/08 05:10:25;;;;;;;9.55;5.13;;;6.70;74.70;;;;;;5012345;28;20057;-69
2022/01/08 05:12:51;;;;;;;7.60;4.63;;;6.70;74.60;;;;;;5012351;28;20030;-69
2022/01/08 05:15:17;;;;;;;8.65;4.53;;;6.60;74.80;;;;;;5012328;28;20068;-68
2022/01/08 05:17:46;;;;;;;7.72;4.65;;;6.60;75.10;;;;;;5012171;28;20121;-68
2022/01/08 05:20:13;;;;;;;10.05;4.38;;;6.60;75.20;;;;;;5012302;28;20112;-68
2022/01/08 05:25:13;;;;;;;13.60;4.45;;;6.50;75.30;;;;;;5012537;28;20044;-67
2022/01/08 05:27:39;;;;;;;7.97;4.20;;;6.40;75.50;;;;;;5012129;28;20109;-68
2022/01/08 05:30:06;;;;;;;9.43;4.57;;;6.40;75.60;;;;;;5014462;28;20471;-69
2022/01/08 05:32:32;;;;;;;11.05;4.72;;;6.30;76.40;;;;;;5015878;28;20079;-69
2022/01/08 05:34:58;;;;;;;7.35;4.35;;;6.20;76.00;;;;;;5015969;28;20524;-69
2022/01/08 05:37:24;;;;;;;7.18;4.13;;;6.30;76.00;;;;;;5015815;28;20033;-68
2022/01/08 05:39:51;;;;;;;7.22;4.03;;;6.30;76.10;;;;;;5015573;28;20057;-67
2022/01/08 05:42:17;;;;;;;8.95;4.50;;;6.30;76.10;;;;;;5015641;28;20113;-68
2022/01/08 05:44:43;;;;;;;7.45;4.45;;;6.30;76.00;;;;;;5014178;28;20471;-69
2022/01/08 05:47:10;;;;;;;16.55;8.50;;;6.30;76.20;;;;;;5015460;28;20030;-69
2022/01/08 05:49:35;;;;;;;9.38;4.50;;;6.20;76.60;;;;;;5015447;28;20078;-68
2022/01/08 05:52:01;;;;;;;9.90;4.32;;;6.30;77.20;;;;;;5015577;28;20054;-68
2022/01/08 05:54:27;;;;;;;9.48;4.60;;;6.30;76.50;;;;;;5015408;28;20057;-67
2022/01/08 05:56:53;;;;;;;8.38;4.10;;;6.30;76.60;;;;;;5015462;28;20042;-67
2022/01/08 05:59:21;;;;;;;8.27;4.18;;;6.40;77.10;;;;;;5015265;28;20030;-68
2022/01/08 06:01:47;;;;;;;11.50;4.22;;;6.40;76.80;;;;;;5015480;28;20038;-67
2022/01/08 06:04:13;;;;;;;8.65;4.38;;;6.40;77.00;;;;;;5015240;28;20151;-67
2022/01/08 06:06:40;;;;;;;9.45;4.50;;;6.50;77.10;;;;;;5015167;28;20077;-68
2022/01/08 06:09:06;;;;;;;7.57;4.10;;;6.50;76.70;;;;;;5014960;28;20061;-68
2022/01/08 06:11:33;;;;;;;8.23;4.40;;;6.50;76.60;;;;;;5030417;28;20105;-68
2022/01/08 06:13:59;;;;;;;11.90;4.63;;;6.50;76.80;;;;;;5015006;28;20096;-68
2022/01/08 06:16:24;;;;;;;8.52;4.28;;;6.50;76.50;;;;;;5013785;28;20471;-69
2022/01/08 06:18:50;;;;;;;7.30;4.50;;;6.50;77.10;;;;;;5014881;28;20482;-67
2022/01/08 06:21:16;;;;;;;10.43;4.85;;;6.50;76.80;;;;;;5014931;28;20030;-69
2022/01/08 06:23:41;;;;;;;9.77;4.20;;;6.50;76.70;;;;;;5014773;28;20478;-68
2022/01/08 06:26:08;;;;;;;10.88;4.90;;;6.40;76.70;;;;;;5014961;28;20057;-68
2022/01/08 06:28:34;;;;;;;9.38;4.60;;;6.40;76.70;;;;;;5014917;28;20056;-69
2022/01/08 06:31:00;;;;;;;9.52;4.82;;;6.40;76.80;;;;;;5014774;28;20387;-68
2022/01/08 06:33:26;;;;;;;8.80;5.07;;;6.40;77.00;;;;;;5014439;28;20052;-68
2022/01/08 06:35:51;;;;;;;8.23;4.75;;;6.40;77.00;;;;;;5014657;28;20030;-67
2022/01/08 06:38:18;;;;;;;12.55;7.03;;;6.30;77.20;;;;;;5014588;28;20032;-68
2022/01/08 06:40:45;;;;;;;8.73;4.97;;;6.30;77.20;;;;;;5013754;28;20076;-68
2022/01/08 06:43:11;;;;;;;10.50;5.53;;;6.30;77.50;;;;;;5014367;28;20029;-68
2022/01/08 06:45:37;;;;;;;10.68;5.30;;;6.30;77.80;;;;;;5014176;28;20038;-68
2022/01/08 06:48:03;;;;;;;12.32;5.57;;;6.30;77.70;;;;;;5014060;28;20022;-68
2022/01/08 06:50:28;;;;;;;10.60;4.80;;;6.20;77.60;;;;;;5014228;28;20383;-68
2022/01/08 06:52:55;;;;;;;10.23;5.60;;;6.20;78.30;;;;;;5014105;28;20038;-67
2022/01/08 06:55:21;;;;;;;9.32;5.18;;;6.20;78.20;;;;;;5014170;28;20518;-67
2022/01/08 06:57:47;;;;;;;10.68;5.40;;;6.20;77.90;;;;;;5013972;28;20434;-68
2022/01/08 07:00:13;;;;;;;10.65;5.43;;;6.20;77.90;;;;;;5014133;28;20026;-67
2022/01/08 07:02:39;;;;;;;13.63;6.05;;;6.20;77.80;;;;;;5014136;28;20491;-69
2022/01/08 07:05:05;;;;;;;10.40;6.25;;;6.20;77.90;;;;;;5014100;28;20395;-67
2022/01/08 07:07:30;;;;;;;10.93;5.75;;;6.30;78.40;;;;;;5013954;28;20018;-67
2022/01/08 07:09:56;;;;;;;10.43;5.75;;;6.30;78.10;;;;;;5013903;28;20111;-68
2022/01/08 07:12:22;;;;;;;9.73;5.70;;;6.20;78.00;;;;;;5013917;28;20132;-68
2022/01/08 07:14:47;;;;;;;9.93;5.78;;;6.20;78.40;;;;;;5013802;28;20034;-68
2022/01/08 07:17:13;;;;;;;12.10;6.28;;;6.20;78.00;;;;;;5013584;28;20026;-68
2022/01/08 07:19:39;;;;;;;9.82;5.68;;;6.30;78.50;;;;;;5013578;28;20088;-68
2022/01/08 07:22:05;;;;;;;10.38;5.63;;;6.40;78.60;;;;;;5013523;28;20105;-67
2022/01/08 07:24:31;;;;;;;12.40;5.95;;;6.40;78.00;;;;;;5013597;28;20033;-68
2022/01/08 07:26:57;;;;;;;10.27;5.05;;;6.40;78.00;;;;;;5013590;28;20097;-68
2022/01/08 07:29:23;;;;;;;11.10;5.40;;;6.40;78.30;;;;;;5013353;28;20057;-71
2022/01/08 07:31:49;;;;;;;13.50;5.50;;;6.40;78.10;;;;;;5013514;28;20471;-68
2022/01/08 07:34:14;;;;;;;10.75;5.70;;;6.50;78.00;;;;;;5013578;28;20034;-69
2022/01/08 07:36:40;;;;;;;9.63;5.97;;;6.50;77.80;;;;;;5013212;28;20072;-72
2022/01/08 07:39:06;;;;;;;12.20;7.18;;;6.60;77.90;;;;;;5028361;28;20440;-69
2022/01/08 07:41:31;;;;;;;11.10;5.70;;;6.60;77.90;;;;;;5013451;28;20030;-69
2022/01/08 07:43:57;;;;;;;12.43;5.85;;;6.70;77.60;;;;;;5013238;28;20557;-69
2022/01/08 07:46:23;;;;;;;11.80;5.78;;;6.70;77.50;;;;;;5012245;28;20040;-68
2022/01/08 07:48:48;;;;;;;12.30;5.60;;;6.80;77.10;;;;;;5013305;28;20084;-68
2022/01/08 07:51:14;;;;;;;17.08;5.68;;;6.80;77.10;;;;;;5012938;28;20395;-67
2022/01/08 07:53:40;;;;;;;10.75;5.40;;;6.90;77.00;;;;;;5012583;28;20113;-68
2022/01/08 07:56:06;;;;;;;11.38;5.25;;;6.90;76.60;;;;;;5012224;28;20030;-68
2022/01/08 07:58:31;;;;;;;8.45;4.93;;;6.90;76.30;;;;;;5011445;28;20030;-70
2022/01/08 08:00:57;;;;;;;8.07;4.70;;;6.90;75.60;;;;;;5012916;28;20030;-74
2022/01/08 08:03:23;;;;;;;8.85;5.03;;;6.80;76.00;;;;;;5012612;28;20360;-69
2022/01/08 08:05:50;;;;;;;11.80;4.65;;;6.80;75.80;;;;;;5012266;28;20106;-68
2022/01/08 08:08:17;;;;;;;8.77;4.63;;;6.80;75.60;;;;;;5012628;28;20026;-68
2022/01/08 08:10:44;;;;;;;9.68;5.00;;;6.80;75.60;;;;;;5012701;28;20108;-68
2022/01/08 08:13:10;;;;;;;8.75;4.80;;;6.70;75.70;;;;;;5012583;28;20056;-68
2022/01/08 08:15:36;;;;;;;7.65;4.28;;;6.70;75.40;;;;;;5010219;28;20472;-67
2022/01/08 08:18:01;;;;;;;7.72;4.55;;;6.60;75.10;;;;;;5006382;28;20109;-69
2022/01/08 08:20:27;;;;;;;8.02;4.43;;;6.60;75.60;;;;;;5012530;28;20097;-67
2022/01/08 08:22:53;;;;;;;9.35;4.78;;;6.50;75.40;;;;;;5012792;28;20022;-67
2022/01/08 08:25:18;;;;;;;10.43;4.45;;;6.50;75.70;;;;;;5012758;28;20048;-69
2022/01/08 08:27:44;;;;;;;9.30;5.22;;;6.60;75.80;;;;;;5006473;28;20178;-68
2022/01/08 08:30:11;;;;;;;7.93;4.68;;;6.60;76.10;;;;;;5009728;28;20064;-67
2022/01/08 08:32:37;;;;;;;8.85;4.45;;;6.60;75.30;;;;;;5012534;28;20093;-68
2022/01/08 08:35:03;;;;;;;10.60;5.15;;;6.60;75.10;;;;;;5012464;28;20057;-71
2022/01/08 08:37:29;;;;;;;9.82;4.63;;;6.60;74.90;;;;;;5012668;28;20026;-68
2022/01/08 08:39:55;;;;;;;10.30;4.95;;;6.60;74.90;;;;;;5012742;28;20468;-66
2022/01/08 08:42:20;;;;;;;14.35;5.03;;;6.50;74.90;;;;;;5012648;28;20105;-71
2022/01/08 08:44:46;;;;;;;8.50;5.22;;;6.60;75.40;;;;;;5011504;28;20487;-73
2022/01/08 08:47:12;;;;;;;12.68;5.65;;;6.80;75.10;;;;;;5003666;28;20022;-69
2022/01/08 08:49:38;;;;;;;12.20;5.85;;;6.80;74.60;;;;;;5004780;28;20033;-68
2022/01/08 08:52:04;;;;;;;8.93;4.53;;;6.90;74.60;;;;;;5011081;28;20379;-68
2022/01/08 08:54:30;;;;;;;10.70;4.60;;;6.90;74.10;;;;;;5001504;28;20046;-68
2022/01/08 08:56:55;;;;;;;12.88;5.13;;;7.00;73.70;;;;;;5006204;28;20038;-68
2022/01/08 08:59:23;;;;;;;8.38;4.75;;;7.00;73.70;;;;;;5003489;28;20048;-69
2022/01/08 09:01:49;;;;;;;7.47;4.57;;;7.10;73.40;;;;;;5007829;28;20117;-69
2022/01/08 09:04:14;;;;;;;10.10;4.78;;;7.10;73.20;;;;;;5010312;28;20519;-69
2022/01/08 09:06:40;;;;;;;13.90;5.93;;;7.10;72.60;;;;;;5013856;28;20125;-69
2022/01/08 09:09:06;;;;;;;10.05;4.95;;;7.20;72.70;;;;;;5012109;28;20046;-69
2022/01/08 09:11:34;;;;;;;9.68;5.40;;;7.30;72.90;;;;;;5011009;28;20034;-72
2022/01/08 09:14:00;;;;;;;10.85;5.20;;;7.40;72.10;;;;;;5013292;28;20337;-70
2022/01/08 09:16:25;;;;;;;8.02;4.93;;;7.40;71.30;;;;;;5009407;28;20037;-70
2022/01/08 09:18:51;;;;;;;7.57;4.30;;;7.40;70.50;;;;;;5012169;28;20064;-69
2022/01/08 09:21:17;;;;;;;9.60;4.90;;;7.50;70.50;;;;;;5012670;28;20037;-69
2022/01/08 09:23:43;;;;;;;7.95;4.65;;;7.50;70.50;;;;;;5008640;28;20054;-72
2022/01/08 09:26:09;;;;;;;9.30;4.88;;;7.60;70.10;;;;;;5015410;28;20344;-74
2022/01/08 09:28:36;;;;;;;8.82;4.80;;;7.70;70.00;;;;;;5014943;28;20026;-69
2022/01/08 09:31:03;;;;;;;8.88;5.05;;;7.70;69.60;;;;;;5011411;28;20053;-67
2022/01/08 09:33:30;;;;;;;6.75;4.35;;;7.80;69.60;;;;;;5015457;28;20083;-67
2022/01/08 09:35:56;;;;;;;12.45;5.53;;;7.90;69.40;;;;;;5015570;28;20541;-68
2022/01/08 09:38:22;;;;;;;12.07;5.10;;;7.90;69.50;;;;;;5014825;28;20054;-67
2022/01/08 09:40:48;;;;;;;8.45;4.80;;;8.00;69.90;;;;;;5010449;28;20376;-69
2022/01/08 09:43:15;;;;;;;7.65;4.50;;;8.10;69.40;;;;;;5015193;28;20390;-68
2022/01/08 09:45:41;;;;;;;10.73;4.80;;;8.10;69.20;;;;;;5014780;28;20045;-67
2022/01/08 09:48:06;;;;;;;8.30;4.45;;;8.10;69.00;;;;;;5014049;28;20026;-67
2022/01/08 09:50:32;;;;;;;11.77;4.85;;;8.10;69.00;;;;;;5010217;28;20038;-68
2022/01/08 09:52:58;;;;;;;9.27;4.80;;;8.10;69.00;;;;;;5015466;28;20030;-70
2022/01/08 09:55:30;;;;;;;11.85;5.32;;;8.10;68.70;;;;;;5007798;28;20514;-67
2022/01/08 09:57:56;;;;;;;9.35;4.80;;;8.30;69.90;;;;;;5014381;28;20394;-68
2022/01/08 10:00:24;;;;;;;7.32;4.32;;;8.40;69.00;;;;;;5007689;28;20038;-69
2022/01/08 10:02:51;;;;;;;8.32;4.63;;;8.50;68.20;;;;;;5012115;28;20017;-68
2022/01/08 10:05:17;;;;;;;14.40;4.93;;;8.50;67.80;;;;;;5014417;28;20482;-68
2022/01/08 10:07:56;;;;;;;10.90;4.63;;;8.50;67.90;;;;;;5014400;28;20027;-69
2022/01/08 10:10:21;;;;;;;9.05;4.70;;;8.60;68.20;;;;;;5009684;28;20117;-69
2022/01/08 10:12:57;;;;;;;11.20;4.80;;;8.60;67.70;;;;;;5013331;28;20119;-75
2022/01/08 10:18:30;;;;;;;8.43;4.70;;;8.70;67.70;;;;;;5003306;28;20057;-68
2022/01/08 10:20:57;;;;;;;9.93;4.28;;;8.90;67.30;;;;;;5010038;28;20486;-70
2022/01/08 10:23:25;;;;;;;8.73;4.85;;;9.00;67.10;;;;;;5011816;28;20144;-67
2022/01/08 10:26:13;;;;;;;9.02;4.60;;;9.10;67.10;;;;;;5014582;28;20030;-69
2022/01/08 10:28:45;;;;;;;8.07;4.68;;;9.20;66.90;;;;;;5012573;28;20034;-75
2022/01/08 10:31:15;;;;;;;10.88;4.97;;;9.30;66.60;;;;;;5010891;28;20032;-67
2022/01/08 10:33:48;;;;;;;8.73;4.45;;;9.40;65.80;;;;;;5014366;28;20467;-68
2022/01/08 10:36:14;;;;;;;9.63;4.45;;;9.40;65.50;;;;;;5014334;28;20022;-70
2022/01/08 10:38:40;;;;;;;9.45;4.53;;;9.40;65.90;;;;;;5013251;28;20471;-70
2022/01/08 10:41:13;;;;;;;9.70;4.32;;;9.40;65.50;;;;;;5010276;28;20088;-70
2022/01/08 10:43:39;;;;;;;8.25;4.47;;;9.50;65.70;;;;;;5014127;28;20030;-70
2022/01/08 10:46:19;;;;;;;10.55;4.43;;;9.60;65.10;;;;;;5014250;28;20109;-71
2022/01/08 10:48:50;;;;;;;11.38;4.85;;;9.70;65.30;;;;;;5012803;28;20021;-69
2022/01/08 10:51:18;;;;;;;9.98;5.07;;;9.80;64.60;;;;;;5010611;28;20026;-66
2022/01/08 10:53:54;;;;;;;9.10;6.00;;;9.90;64.30;;;;;;5012051;28;20045;-68
2022/01/08 10:56:24;;;;;;;10.25;5.80;;;9.90;64.20;;;;;;5013466;28;20022;-71
2022/01/08 10:58:53;;;;;;;9.23;5.43;;;10.10;63.00;;;;;;5011116;28;20021;-70
2022/01/08 11:01:57;;;;;;;9.60;6.05;;;10.10;62.30;;;;;;5010261;28;20018;-68
2022/01/08 11:04:50;;;;;;;9.65;5.32;;;10.20;62.10;;;;;;5013428;28;20475;-69
2022/01/08 11:07:23;;;;;;;9.48;4.72;;;10.30;62.40;;;;;;5013657;28;20490;-71
2022/01/08 11:09:55;;;;;;;11.20;6.10;;;10.40;62.20;;;;;;5008348;28;20564;-69
2022/01/08 11:12:29;;;;;;;7.95;4.90;;;10.50;61.80;;;;;;5012939;28;20030;-69
2022/01/08 11:15:22;;;;;;;10.25;5.05;;;10.60;60.80;;;;;;5012833;28;20033;-70
2022/01/08 11:17:50;;;;;;;8.82;4.40;;;10.60;60.60;;;;;;5013399;28;20037;-71
2022/01/08 11:20:22;;;;;;;7.65;3.90;;;10.60;59.90;;;;;;5010167;28;20030;-70
2022/01/08 11:22:53;;;;;;;7.35;4.05;;;10.60;59.30;;;;;;5013867;28;20045;-69
2022/01/08 11:25:30;;;;;;;7.97;4.75;;;10.70;59.70;;;;;;5012808;28;20045;-69
2022/01/08 11:28:13;;;;;;;7.45;4.07;;;10.80;60.30;;;;;;5008730;28;20029;-72
2022/01/08 11:30:57;;;;;;;9.50;4.60;;;10.80;60.00;;;;;;5008636;28;20104;-69
2022/01/08 11:33:30;;;;;;;8.57;4.65;;;10.70;59.40;;;;;;4993702;28;20464;-69
2022/01/08 11:35:57;;;;;;;7.22;4.03;;;10.80;59.80;;;;;;4997042;28;20037;-67
2022/01/08 11:38:26;;;;;;;7.88;4.25;;;10.80;59.40;;;;;;5028294;28;20113;-68
2022/01/08 11:40:53;;;;;;;8.95;4.43;;;10.90;59.60;;;;;;5012919;28;20089;-69
2022/01/08 11:43:22;;;;;;;8.50;4.63;;;11.00;59.20;;;;;;5013303;28;20554;-67
2022/01/08 11:45:52;;;;;;;8.45;4.22;;;11.10;59.20;;;;;;5012830;28;20104;-67
2022/01/08 11:48:21;;;;;;;8.50;4.85;;;11.10;59.70;;;;;;5011038;28;20100;-66
2022/01/08 11:51:06;;;;;;;12.38;7.22;;;11.30;59.40;;;;;;5011332;28;20030;-68
2022/01/08 11:53:54;;;;;;;23.63;6.95;;;11.30;59.00;;;;;;5024182;28;20081;-68
2022/01/08 11:56:27;;;;;;;8.65;4.35;;;11.40;58.90;;;;;;4993474;28;20108;-66
2022/01/08 11:59:21;;;;;;;8.05;4.43;;;11.50;58.30;;;;;;4993547;28;20030;-68
2022/01/08 12:02:10;;;;;;;7.82;3.80;;;11.60;58.10;;;;;;4992439;28;20368;-69
2022/01/08 12:04:36;;;;;;;9.98;4.75;;;11.60;58.00;;;;;;5008218;28;20038;-69
2022/01/08 12:07:35;;;;;;;8.75;3.67;;;11.60;57.60;;;;;;5000157;28;20050;-68
2022/01/08 12:10:13;;;;;;;7.18;4.20;;;11.70;58.00;;;;;;5011168;28;20057;-71
2022/01/08 12:13:01;;;;;;;6.63;3.63;;;11.60;57.00;;;;;;5005855;28;20038;-71
2022/01/08 12:15:41;;;;;;;8.13;3.72;;;11.60;56.70;;;;;;5010616;28;20030;-68
2022/01/08 12:18:09;;;;;;;8.15;4.05;;;11.70;57.20;;;;;;4993169;28;20490;-69
2022/01/08 12:20:42;;;;;;;9.00;4.07;;;11.80;57.00;;;;;;4993375;28;20427;-70
2022/01/08 12:23:23;;;;;;;7.50;3.40;;;11.90;56.90;;;;;;5008761;28;20041;-70
2022/01/08 12:25:52;;;;;;;6.57;3.40;;;12.00;56.10;;;;;;5010822;28;20100;-67
2022/01/08 12:28:58;;;;;;;8.77;3.60;;;11.90;55.80;;;;;;5011293;28;20042;-70
2022/01/08 12:31:31;;;;;;;7.90;3.83;;;12.00;54.40;;;;;;4969254;28;20026;-71
2022/01/08 12:34:37;;;;;;;9.38;3.17;;;12.10;55.60;;;;;;5007217;28;20042;-72
2022/01/08 12:37:05;;;;;;;8.35;3.25;;;12.20;55.90;;;;;;5012241;28;20035;-70
2022/01/08 12:39:43;;;;;;;6.90;3.25;;;12.30;54.80;;;;;;5011458;28;20104;-70
2022/01/08 12:42:25;;;;;;;9.25;3.30;;;12.30;52.60;;;;;;5009518;28;20033;-67
2022/01/08 12:45:12;;;;;;;6.35;3.22;;;12.30;54.00;;;;;;5011588;28;20467;-73
2022/01/08 12:48:04;;;;;;;7.90;3.55;;;12.20;53.90;;;;;;5012410;28;20415;-72
2022/01/08 12:50:38;;;;;;;7.18;3.40;;;12.30;53.40;;;;;;5010805;28;20038;-74
2022/01/08 12:53:06;;;;;;;5.93;3.35;;;12.30;53.20;;;;;;5010654;28;20041;-75
2022/01/08 12:55:41;;;;;;;7.93;4.10;;;12.20;53.20;;;;;;5012980;28;20119;-80
2022/01/08 12:58:21;;;;;;;6.55;2.90;;;12.20;52.80;;;;;;5005607;28;20049;-73
2022/01/08 13:01:02;;;;;;;8.75;3.10;;;12.20;52.50;;;;;;4994874;28;20379;-76
2022/01/08 13:03:37;;;;;;;7.53;2.85;;;12.30;52.40;;;;;;5010452;28;20022;-74
2022/01/08 13:06:05;;;;;;;5.20;2.60;;;12.30;51.60;;;;;;5012517;28;20037;-80
2022/01/08 13:08:33;;;;;;;7.07;2.90;;;12.40;51.40;;;;;;5012070;28;20026;-75
2022/01/08 13:11:02;;;;;;;6.35;2.60;;;12.40;49.50;;;;;;5012242;28;20041;-76
2022/01/08 13:13:40;;;;;;;5.82;2.80;;;12.40;48.70;;;;;;5010831;28;20028;-72
2022/01/08 13:16:26;;;;;;;4.88;2.63;;;12.30;49.20;;;;;;5012156;28;20024;-73
2022/01/08 13:19:00;;;;;;;6.97;2.88;;;12.40;48.40;;;;;;5011668;28;20046;-72
2022/01/08 13:21:36;;;;;;;;;;;12.40;49.00;;;;;;5010639;28;20022;-73
2022/01/08 13:24:15;;;;;;;5.45;2.22;;;12.50;45.40;;;;;;5011896;28;19962;-76
2022/01/08 13:26:42;;;;;;;8.80;2.50;;;12.50;47.80;;;;;;5012315;28;20057;-72
2022/01/08 13:29:32;;;;;;;5.90;2.67;;;12.40;45.80;;;;;;5012185;28;20022;-75